Time;durP1;ratioP1;P1;durP2;ratioP2;P2;SDS_P1;SDS_P2;PMS_P1;PMS_P2;Temp;Humidity;BMP_temperature;BMP_pressure;BME280_temperature;BME280_humidity;BME280_pressure;Samples;Min_cycle;Max_cycle;Signal;HPM_P1;HPM_P2
2022/03/14 00:01:58;;;;;;;17.25;8.90;;;4.60;51.30;;;;;;5012336;28;20030;-85
2022/03/14 00:04:24;;;;;;;21.40;9.45;;;4.60;51.40;;;;;;5028590;28;20099;-86
2022/03/14 00:06:51;;;;;;;21.45;8.68;;;4.60;51.50;;;;;;5026483;28;20402;-85
2022/03/14 00:09:17;;;;;;;17.67;8.82;;;4.60;51.50;;;;;;5026017;28;20017;-86
2022/03/14 00:11:45;;;;;;;18.13;9.05;;;4.60;51.60;;;;;;5025475;28;20037;-85
2022/03/14 00:14:11;;;;;;;19.60;8.23;;;4.60;51.50;;;;;;5014274;28;20069;-84
2022/03/14 00:16:41;;;;;;;19.05;8.70;;;4.60;51.70;;;;;;5032886;28;20034;-85
2022/03/14 00:19:07;;;;;;;17.33;8.90;;;4.60;51.60;;;;;;5034806;28;20018;-84
2022/03/14 00:21:41;;;;;;;17.15;8.57;;;4.60;51.70;;;;;;5037485;28;20109;-84
2022/03/14 00:24:10;;;;;;;16.25;7.78;;;4.60;51.80;;;;;;5034964;28;20572;-85
2022/03/14 00:26:36;;;;;;;20.83;8.65;;;4.60;51.90;;;;;;5033306;28;20026;-84
2022/03/14 00:29:06;;;;;;;17.05;8.88;;;4.60;51.80;;;;;;5030300;28;20105;-86
2022/03/14 00:31:32;;;;;;;20.80;8.23;;;4.50;51.60;;;;;;5013597;28;20445;-82
2022/03/14 00:33:57;;;;;;;16.52;7.90;;;4.60;51.70;;;;;;5034846;28;20119;-84
2022/03/14 00:36:25;;;;;;;18.33;8.20;;;4.60;51.70;;;;;;5029484;28;20033;-85
2022/03/14 00:38:52;;;;;;;19.17;8.02;;;4.60;51.70;;;;;;5026207;28;20082;-84
2022/03/14 00:41:19;;;;;;;18.13;7.72;;;4.50;51.60;;;;;;5031662;28;20026;-83
2022/03/14 00:43:45;;;;;;;19.38;7.90;;;4.50;51.70;;;;;;5039192;28;20038;-83
2022/03/14 00:46:11;;;;;;;21.77;8.25;;;4.50;51.90;;;;;;5037950;28;20030;-83
2022/03/14 00:48:37;;;;;;;18.20;8.68;;;4.50;51.80;;;;;;5031792;28;20028;-83
2022/03/14 00:51:05;;;;;;;21.05;8.57;;;4.40;51.60;;;;;;5038690;28;20563;-83
2022/03/14 00:53:31;;;;;;;15.15;7.63;;;4.40;51.90;;;;;;5032074;28;20432;-85
2022/03/14 00:56:01;;;;;;;17.25;7.63;;;4.40;51.80;;;;;;5006705;28;20564;-86
2022/03/14 00:58:29;;;;;;;19.77;8.07;;;4.40;51.90;;;;;;5023969;28;20064;-84
2022/03/14 01:00:56;;;;;;;14.88;7.43;;;4.40;52.00;;;;;;5031784;28;20046;-84
2022/03/14 01:03:21;;;;;;;15.88;7.45;;;4.30;52.00;;;;;;5028732;28;20033;-83
2022/03/14 01:05:47;;;;;;;16.20;8.25;;;4.30;52.70;;;;;;5013427;28;20018;-83
2022/03/14 01:08:13;;;;;;;17.38;7.75;;;4.30;52.20;;;;;;5040445;28;20030;-83
2022/03/14 01:10:39;;;;;;;19.38;8.68;;;4.20;52.40;;;;;;5039003;28;20094;-83
2022/03/14 01:13:05;;;;;;;15.95;7.70;;;4.20;52.80;;;;;;5039549;28;20022;-83
2022/03/14 01:15:34;;;;;;;18.75;8.05;;;4.20;52.70;;;;;;5030288;28;20034;-85
2022/03/14 01:18:01;;;;;;;17.40;7.63;;;4.10;52.80;;;;;;5024625;28;20026;-85
2022/03/14 01:20:26;;;;;;;20.50;7.60;;;4.10;52.90;;;;;;5023600;28;20452;-84
2022/03/14 01:22:55;;;;;;;16.90;8.48;;;4.10;53.00;;;;;;5024412;28;20022;-85
2022/03/14 01:25:25;;;;;;;14.68;7.18;;;4.10;53.00;;;;;;5024237;28;20038;-84
2022/03/14 01:27:52;;;;;;;18.08;8.68;;;4.00;53.20;;;;;;5006654;28;20026;-84
2022/03/14 01:30:19;;;;;;;16.13;7.57;;;3.90;53.20;;;;;;5024451;28;20040;-85
2022/03/14 01:32:46;;;;;;;15.52;7.97;;;3.90;53.30;;;;;;5026043;28;20030;-86
2022/03/14 01:35:11;;;;;;;18.17;8.05;;;3.90;53.30;;;;;;5026152;28;20042;-85
2022/03/14 01:37:37;;;;;;;14.63;7.63;;;3.80;53.40;;;;;;5028080;28;20038;-85
2022/03/14 01:40:07;;;;;;;20.23;8.00;;;3.80;53.50;;;;;;5025395;28;20022;-85
2022/03/14 01:42:33;;;;;;;22.67;7.70;;;3.80;53.50;;;;;;5034516;28;20029;-83
2022/03/14 01:44:59;;;;;;;21.23;8.13;;;3.70;53.60;;;;;;5027705;28;20025;-85
2022/03/14 01:47:25;;;;;;;18.75;8.38;;;3.60;53.80;;;;;;5027333;28;20036;-84
2022/03/14 01:49:50;;;;;;;14.23;7.15;;;3.60;53.90;;;;;;5028259;28;20049;-84
2022/03/14 01:52:16;;;;;;;17.50;7.97;;;3.60;54.10;;;;;;5024949;28;20034;-85
2022/03/14 01:54:42;;;;;;;18.83;8.00;;;3.60;54.20;;;;;;5036600;28;20018;-82
2022/03/14 01:57:08;;;;;;;19.00;8.45;;;3.50;54.40;;;;;;5038647;28;20022;-83
2022/03/14 01:59:36;;;;;;;18.92;8.27;;;3.50;54.40;;;;;;5028710;28;20033;-85
2022/03/14 02:02:11;;;;;;;18.73;7.97;;;3.50;54.70;;;;;;5032077;28;20030;-83
2022/03/14 02:04:39;;;;;;;17.83;8.13;;;3.50;54.80;;;;;;5039195;28;20042;-83
2022/03/14 02:07:05;;;;;;;15.13;7.70;;;3.40;55.00;;;;;;5029037;28;20037;-85
2022/03/14 02:09:31;;;;;;;17.85;7.90;;;3.40;55.10;;;;;;5010986;28;20494;-83
2022/03/14 02:11:57;;;;;;;16.25;7.47;;;3.40;55.30;;;;;;5028613;28;20032;-86
2022/03/14 02:14:24;;;;;;;19.77;7.88;;;3.30;55.40;;;;;;5030311;28;20034;-84
2022/03/14 02:16:50;;;;;;;18.42;8.05;;;3.30;55.50;;;;;;5032063;28;20022;-85
2022/03/14 02:19:17;;;;;;;18.77;8.52;;;3.30;55.70;;;;;;5028324;28;20025;-85
2022/03/14 02:21:43;;;;;;;17.58;7.88;;;3.30;55.70;;;;;;5026995;28;20022;-83
2022/03/14 02:24:10;;;;;;;16.08;6.82;;;3.30;55.90;;;;;;5035590;28;20038;-84
2022/03/14 02:26:39;;;;;;;14.82;7.78;;;3.20;56.00;;;;;;5028970;28;20029;-86
2022/03/14 02:29:08;;;;;;;17.65;7.65;;;3.20;56.80;;;;;;5028819;28;20044;-85
2022/03/14 02:31:36;;;;;;;16.77;6.90;;;3.20;56.50;;;;;;5026480;28;20022;-84
2022/03/14 02:34:07;;;;;;;16.35;7.70;;;3.20;56.70;;;;;;5029140;28;20034;-84
2022/03/14 02:36:37;;;;;;;19.63;7.82;;;3.20;56.90;;;;;;5033483;28;20092;-85
2022/03/14 02:39:04;;;;;;;17.52;7.25;;;3.30;57.00;;;;;;5026153;28;20030;-85
2022/03/14 02:41:32;;;;;;;17.73;7.53;;;3.40;57.00;;;;;;5025382;28;20026;-85
2022/03/14 02:43:59;;;;;;;18.42;7.72;;;3.40;57.20;;;;;;5024895;28;20032;-82
2022/03/14 02:46:25;;;;;;;21.20;8.32;;;3.40;57.10;;;;;;5024595;28;20486;-85
2022/03/14 02:48:51;;;;;;;16.05;8.15;;;3.40;57.20;;;;;;5023818;28;20033;-84
2022/03/14 02:51:17;;;;;;;14.57;7.55;;;3.40;57.30;;;;;;5024024;28;20676;-85
2022/03/14 02:53:42;;;;;;;17.05;7.85;;;3.40;57.30;;;;;;5028996;28;20056;-83
2022/03/14 02:56:09;;;;;;;19.45;7.65;;;3.40;57.30;;;;;;5030990;28;20026;-84
2022/03/14 02:58:39;;;;;;;17.42;7.45;;;3.40;57.00;;;;;;5014395;28;20037;-84
2022/03/14 03:01:04;;;;;;;19.42;8.85;;;3.40;57.00;;;;;;5031167;28;20040;-85
2022/03/14 03:03:31;;;;;;;15.77;7.47;;;3.40;57.00;;;;;;5033573;28;20074;-82
2022/03/14 03:06:00;;;;;;;15.95;7.47;;;3.40;57.20;;;;;;5019027;28;20277;-83
2022/03/14 03:08:25;;;;;;;16.40;7.13;;;3.40;57.30;;;;;;5031959;28;20070;-83
2022/03/14 03:10:59;;;;;;;20.90;8.27;;;3.40;57.30;;;;;;5030016;28;20372;-84
2022/03/14 03:13:27;;;;;;;26.17;8.50;;;3.40;57.30;;;;;;5031843;28;20036;-82
2022/03/14 03:15:54;;;;;;;24.63;9.10;;;3.50;57.20;;;;;;5037353;28;20045;-81
2022/03/14 03:18:19;;;;;;;14.52;7.35;;;3.50;57.10;;;;;;5028267;28;20049;-85
2022/03/14 03:20:45;;;;;;;16.80;8.05;;;3.50;57.10;;;;;;5029333;28;20029;-84
2022/03/14 03:23:11;;;;;;;21.13;7.80;;;3.50;57.10;;;;;;5030166;28;20371;-84
2022/03/14 03:25:37;;;;;;;17.17;7.85;;;3.50;57.10;;;;;;5032749;28;20033;-82
2022/03/14 03:28:02;;;;;;;19.60;8.25;;;3.50;57.10;;;;;;5017644;28;20026;-85
2022/03/14 03:30:28;;;;;;;16.20;8.07;;;3.50;57.10;;;;;;5035251;28;20022;-83
2022/03/14 03:32:54;;;;;;;15.88;8.32;;;3.50;57.10;;;;;;5033522;28;20033;-84
2022/03/14 03:35:21;;;;;;;14.27;7.55;;;3.50;57.20;;;;;;5032134;28;20108;-83
2022/03/14 03:37:47;;;;;;;17.95;8.55;;;3.50;57.30;;;;;;5025320;28;20038;-85
2022/03/14 03:40:13;;;;;;;14.68;7.63;;;3.50;57.40;;;;;;5023480;28;20026;-84
2022/03/14 03:42:39;;;;;;;17.17;7.90;;;3.50;57.50;;;;;;5020808;28;20037;-86
2022/03/14 03:45:05;;;;;;;17.88;8.68;;;3.50;57.60;;;;;;5029086;28;20033;-84
2022/03/14 03:47:31;;;;;;;19.50;8.43;;;3.40;57.70;;;;;;5034228;28;20058;-84
2022/03/14 03:49:57;;;;;;;16.67;7.78;;;3.40;57.60;;;;;;5032122;28;20030;-84
2022/03/14 03:52:23;;;;;;;17.13;7.35;;;3.40;57.70;;;;;;5033743;28;20061;-83
2022/03/14 03:54:48;;;;;;;19.33;8.88;;;3.40;57.60;;;;;;5036145;28;20037;-85
2022/03/14 03:57:15;;;;;;;17.58;9.05;;;3.40;57.50;;;;;;5037272;28;20022;-83
2022/03/14 03:59:41;;;;;;;17.25;8.02;;;3.40;57.30;;;;;;5037210;28;20043;-83
2022/03/14 04:02:08;;;;;;;16.65;7.88;;;3.50;57.30;;;;;;5034684;28;20042;-83
2022/03/14 04:04:36;;;;;;;19.00;8.98;;;3.40;57.10;;;;;;5030312;28;20116;-84
2022/03/14 04:07:04;;;;;;;22.35;8.25;;;3.50;57.10;;;;;;5029724;28;20030;-83
2022/03/14 04:09:30;;;;;;;19.50;8.07;;;3.40;57.10;;;;;;5029382;28;20026;-84
2022/03/14 04:11:56;;;;;;;16.10;7.90;;;3.40;57.00;;;;;;5027204;28;20034;-85
2022/03/14 04:14:21;;;;;;;16.85;8.10;;;3.40;57.00;;;;;;5024612;28;20026;-84
2022/03/14 04:16:48;;;;;;;23.58;8.85;;;3.40;57.10;;;;;;5025357;28;20042;-84
2022/03/14 04:19:16;;;;;;;17.27;8.35;;;3.40;57.40;;;;;;5028928;28;20064;-83
2022/03/14 04:21:45;;;;;;;21.13;8.57;;;3.40;57.50;;;;;;5032139;28;20034;-82
2022/03/14 04:24:10;;;;;;;21.08;8.25;;;3.40;57.70;;;;;;5035199;28;20032;-81
2022/03/14 04:26:38;;;;;;;21.25;8.70;;;3.40;57.90;;;;;;5036172;28;20037;-82
2022/03/14 04:29:04;;;;;;;18.92;8.73;;;3.40;58.20;;;;;;5019203;28;20042;-83
2022/03/14 04:31:30;;;;;;;14.38;7.78;;;3.40;58.30;;;;;;5036751;28;20040;-83
2022/03/14 04:33:58;;;;;;;17.48;8.32;;;3.30;58.30;;;;;;5035745;28;20026;-84
2022/03/14 04:36:24;;;;;;;19.60;9.15;;;3.30;58.50;;;;;;5035176;28;20038;-83
2022/03/14 04:38:49;;;;;;;17.05;8.50;;;3.30;58.70;;;;;;5037285;28;20212;-83
2022/03/14 04:41:15;;;;;;;18.35;8.75;;;3.20;58.70;;;;;;5015235;28;20101;-85
2022/03/14 04:43:41;;;;;;;15.95;8.07;;;3.20;59.00;;;;;;5028970;28;20026;-83
2022/03/14 04:46:07;;;;;;;16.42;8.27;;;3.20;59.20;;;;;;5033402;28;20040;-83
2022/03/14 04:48:33;;;;;;;18.77;9.20;;;3.20;59.30;;;;;;5035088;28;20053;-85
2022/03/14 04:50:59;;;;;;;18.33;8.75;;;3.10;59.40;;;;;;5018096;28;20022;-85
2022/03/14 04:53:25;;;;;;;19.70;8.35;;;3.10;59.50;;;;;;5014020;28;20041;-84
2022/03/14 04:55:51;;;;;;;17.67;8.80;;;3.10;59.70;;;;;;5026769;28;20030;-83
2022/03/14 04:58:17;;;;;;;20.20;8.98;;;3.00;59.70;;;;;;5033014;28;20030;-85
2022/03/14 05:00:43;;;;;;;22.48;8.18;;;3.00;59.90;;;;;;5038410;28;20030;-84
2022/03/14 05:03:10;;;;;;;21.92;9.50;;;2.90;60.00;;;;;;5040192;28;20017;-83
2022/03/14 05:05:40;;;;;;;23.58;8.73;;;2.90;60.20;;;;;;5013375;28;20037;-86
2022/03/14 05:08:06;;;;;;;21.38;8.35;;;2.90;60.40;;;;;;5037435;28;20054;-84
2022/03/14 05:10:32;;;;;;;22.77;9.50;;;2.90;60.50;;;;;;5038485;28;20037;-86
2022/03/14 05:13:00;;;;;;;17.65;8.60;;;2.90;60.60;;;;;;5025062;28;20045;-85
2022/03/14 05:15:25;;;;;;;18.52;8.18;;;2.90;60.80;;;;;;5024187;28;20176;-86
2022/03/14 05:17:53;;;;;;;21.48;8.80;;;2.80;60.80;;;;;;5025666;28;20022;-84
2022/03/14 05:20:19;;;;;;;23.08;8.85;;;2.80;61.10;;;;;;5036645;28;20030;-85
2022/03/14 05:22:49;;;;;;;23.25;9.60;;;2.80;61.40;;;;;;5038612;28;20037;-84
2022/03/14 05:25:23;;;;;;;23.08;10.15;;;2.80;61.80;;;;;;5033429;28;20049;-85
2022/03/14 05:27:49;;;;;;;22.90;9.35;;;2.70;62.20;;;;;;5027187;28;20088;-84
2022/03/14 05:30:15;;;;;;;19.83;9.40;;;2.70;62.50;;;;;;5027774;28;20032;-86
2022/03/14 05:32:42;;;;;;;21.10;8.88;;;2.70;62.90;;;;;;5022823;28;20044;-84
2022/03/14 05:35:12;;;;;;;23.58;8.70;;;2.70;63.60;;;;;;5026296;28;20037;-84
2022/03/14 05:37:39;;;;;;;23.15;8.90;;;2.70;64.10;;;;;;5048591;23;20046;-91
2022/03/14 05:40:07;;;;;;;25.40;10.20;;;2.70;63.70;;;;;;5002543;28;20058;-91
2022/03/14 05:42:33;;;;;;;26.17;9.50;;;2.70;63.80;;;;;;5019747;28;20027;-92
2022/03/14 05:44:58;;;;;;;23.33;9.88;;;2.70;63.60;;;;;;4996648;28;20037;-91
2022/03/14 05:47:25;;;;;;;25.30;9.85;;;2.70;64.10;;;;;;5008766;28;20083;-90
2022/03/14 05:49:51;;;;;;;30.00;9.98;;;2.80;64.00;;;;;;4994701;28;20102;-91
2022/03/14 05:52:19;;;;;;;28.55;10.65;;;2.80;63.60;;;;;;5002820;28;20018;-90
2022/03/14 05:54:44;;;;;;;33.65;11.27;;;2.80;64.00;;;;;;5003369;28;20010;-90
2022/03/14 05:57:10;;;;;;;33.05;10.63;;;2.80;63.80;;;;;;5003004;28;20094;-89
2022/03/14 05:59:36;;;;;;;29.23;10.65;;;2.80;63.70;;;;;;5003199;28;20019;-91
2022/03/14 06:02:02;;;;;;;41.78;9.45;;;2.80;63.70;;;;;;5018940;28;20110;-92
2022/03/14 06:04:29;;;;;;;35.03;10.50;;;2.80;63.70;;;;;;5019604;28;20014;-90
2022/03/14 06:06:56;;;;;;;26.02;10.68;;;2.80;63.80;;;;;;5019002;28;20046;-92
2022/03/14 06:09:25;;;;;;;21.27;9.75;;;2.90;63.60;;;;;;5019725;28;20053;-92
2022/03/14 06:11:54;;;;;;;22.30;10.40;;;3.00;63.60;;;;;;5003394;28;20050;-91
2022/03/14 06:14:21;;;;;;;25.98;9.75;;;3.00;63.60;;;;;;5002570;28;20054;-92
2022/03/14 06:16:47;;;;;;;23.08;8.88;;;3.10;64.00;;;;;;5018553;28;20034;-92
2022/03/14 06:19:14;;;;;;;24.20;9.23;;;3.20;64.30;;;;;;5017816;28;20018;-91
2022/03/14 06:21:41;;;;;;;21.38;9.30;;;3.20;64.30;;;;;;5014134;28;20038;-90
2022/03/14 06:24:09;;;;;;;21.70;9.77;;;3.20;64.50;;;;;;4992775;28;20123;-89
2022/03/14 06:26:35;;;;;;;19.40;9.48;;;3.20;64.70;;;;;;5010920;28;20058;-90
2022/03/14 06:29:02;;;;;;;23.17;9.13;;;3.30;64.90;;;;;;5009416;28;20483;-91
2022/03/14 06:31:30;;;;;;;19.20;9.18;;;3.30;64.90;;;;;;5005715;28;20088;-87
2022/03/14 06:33:56;;;;;;;25.30;10.05;;;3.40;65.00;;;;;;5005187;28;20022;-87
2022/03/14 06:36:22;;;;;;;18.67;10.05;;;3.50;65.20;;;;;;5005465;28;20034;-87
2022/03/14 06:38:48;;;;;;;20.98;9.35;;;3.50;65.10;;;;;;5006542;28;20037;-87
2022/03/14 06:41:14;;;;;;;28.17;11.00;;;3.50;65.00;;;;;;5016594;28;20109;-87
2022/03/14 06:43:40;;;;;;;26.65;10.52;;;3.60;65.30;;;;;;5018467;28;20022;-84
2022/03/14 06:46:08;;;;;;;23.15;9.68;;;3.70;65.30;;;;;;5018341;28;20023;-86
2022/03/14 06:48:39;;;;;;;18.90;9.02;;;3.80;65.20;;;;;;5000883;28;20045;-87
2022/03/14 06:51:06;;;;;;;28.63;9.60;;;3.90;65.10;;;;;;5011791;28;20044;-86
2022/03/14 06:53:31;;;;;;;22.27;9.32;;;4.00;65.50;;;;;;5013982;28;20046;-85
2022/03/14 06:55:57;;;;;;;21.65;8.88;;;4.10;65.30;;;;;;5015927;28;20062;-85
2022/03/14 06:58:23;;;;;;;46.70;17.33;;;4.20;66.10;;;;;;5016796;28;20014;-86
2022/03/14 07:00:49;;;;;;;25.50;10.90;;;4.20;66.40;;;;;;5017049;28;20512;-85
2022/03/14 07:03:15;;;;;;;21.83;9.35;;;4.20;66.40;;;;;;5015257;28;20061;-84
2022/03/14 07:05:40;;;;;;;17.70;8.85;;;4.20;66.70;;;;;;5037987;28;20169;-84
2022/03/14 07:08:06;;;;;;;20.15;9.00;;;4.30;66.70;;;;;;5015307;28;20035;-84
2022/03/14 07:10:32;;;;;;;19.85;8.77;;;4.30;66.90;;;;;;5016094;28;20030;-85
2022/03/14 07:12:58;;;;;;;17.85;8.93;;;4.40;67.10;;;;;;5014465;28;20062;-83
2022/03/14 07:15:25;;;;;;;19.23;8.73;;;4.50;67.20;;;;;;5016206;28;20050;-84
2022/03/14 07:17:52;;;;;;;22.65;8.80;;;4.50;67.20;;;;;;5016429;28;20048;-84
2022/03/14 07:20:19;;;;;;;17.05;8.60;;;4.50;67.20;;;;;;5009325;28;20106;-87
2022/03/14 07:23:00;;;;;;;18.98;8.85;;;4.60;67.40;;;;;;5012707;28;20041;-86
2022/03/14 07:25:31;;;;;;;18.73;8.75;;;4.70;67.50;;;;;;5011312;28;20125;-88
2022/03/14 07:28:03;;;;;;;19.00;9.30;;;4.90;67.40;;;;;;5004683;28;20038;-86
2022/03/14 07:30:29;;;;;;;24.83;9.25;;;5.00;67.30;;;;;;5011693;28;20037;-87
2022/03/14 07:32:55;;;;;;;24.25;10.02;;;5.10;67.00;;;;;;5017144;28;20022;-85
2022/03/14 07:35:22;;;;;;;33.55;11.65;;;5.30;66.80;;;;;;5016918;28;20050;-86
2022/03/14 07:37:50;;;;;;;28.25;10.40;;;5.40;66.50;;;;;;5017298;28;20023;-85
2022/03/14 07:40:16;;;;;;;24.60;9.77;;;5.50;66.10;;;;;;5015320;28;20053;-85
2022/03/14 07:42:47;;;;;;;19.77;9.43;;;5.60;66.00;;;;;;5012793;28;20050;-88
2022/03/14 07:45:20;;;;;;;27.25;9.73;;;5.60;66.60;;;;;;5006148;28;20038;-88
2022/03/14 07:47:45;;;;;;;16.08;7.88;;;5.70;66.00;;;;;;5016741;28;20020;-86
2022/03/14 07:50:14;;;;;;;17.85;9.27;;;5.80;67.20;;;;;;5000163;28;20098;-86
2022/03/14 07:52:40;;;;;;;24.35;9.20;;;5.80;67.30;;;;;;5015827;28;20018;-88
2022/03/14 07:55:07;;;;;;;18.02;8.63;;;5.90;67.30;;;;;;5017530;28;20018;-85
2022/03/14 07:57:37;;;;;;;15.90;7.72;;;5.90;67.80;;;;;;5017558;28;20077;-85
2022/03/14 08:00:08;;;;;;;20.92;8.02;;;6.00;68.30;;;;;;5011853;28;20026;-86
2022/03/14 08:02:41;;;;;;;18.38;8.02;;;5.90;68.60;;;;;;5005754;28;20027;-86
2022/03/14 08:05:09;;;;;;;14.93;8.50;;;5.90;69.10;;;;;;5015837;28;20042;-85
2022/03/14 08:07:35;;;;;;;14.50;7.97;;;5.90;69.00;;;;;;5015723;28;20030;-85
2022/03/14 08:10:09;;;;;;;18.55;9.32;;;6.00;69.10;;;;;;5016893;28;20045;-84
2022/03/14 08:12:44;;;;;;;14.90;8.00;;;6.20;68.40;;;;;;5013949;28;20034;-87
2022/03/14 08:15:10;;;;;;;;;;;6.20;68.40;;;;;;5016695;28;20062;-85
2022/03/14 08:17:36;;;;;;;18.77;8.57;;;6.20;68.10;;;;;;5008844;28;19910;-87
2022/03/14 08:20:03;;;;;;;16.65;8.35;;;6.20;67.90;;;;;;5011392;28;20034;-85
2022/03/14 08:22:29;;;;;;;19.00;7.95;;;6.30;67.90;;;;;;5019988;28;20022;-85
2022/03/14 08:24:55;;;;;;;17.40;8.13;;;6.30;67.60;;;;;;5016294;28;20037;-87
2022/03/14 08:27:21;;;;;;;16.70;7.75;;;6.30;67.60;;;;;;5010533;28;20145;-86
2022/03/14 08:29:47;;;;;;;17.90;8.50;;;6.30;67.50;;;;;;5013447;28;20126;-87
2022/03/14 08:32:13;;;;;;;19.13;8.82;;;6.40;67.20;;;;;;4987707;28;20102;-85
2022/03/14 08:34:39;;;;;;;16.83;7.53;;;6.40;66.90;;;;;;5009583;28;20019;-87
2022/03/14 08:37:05;;;;;;;17.30;8.25;;;6.40;67.30;;;;;;5015677;28;20069;-85
2022/03/14 08:39:34;;;;;;;14.00;8.63;;;6.50;66.90;;;;;;5016863;28;20046;-84
2022/03/14 08:41:59;;;;;;;17.08;7.82;;;6.60;66.70;;;;;;5014441;28;20007;-84
2022/03/14 08:44:25;;;;;;;21.15;9.50;;;6.60;66.40;;;;;;5017856;28;20036;-89
2022/03/14 08:46:51;;;;;;;23.20;10.32;;;6.70;66.30;;;;;;5017324;28;20124;-85
2022/03/14 08:49:17;;;;;;;15.80;9.02;;;6.70;66.10;;;;;;5017160;28;20037;-85
2022/03/14 08:51:43;;;;;;;17.70;8.65;;;6.90;66.30;;;;;;5010708;28;20049;-85
2022/03/14 08:54:08;;;;;;;18.98;9.07;;;6.90;65.80;;;;;;5012100;28;20082;-84
2022/03/14 08:56:34;;;;;;;18.88;8.98;;;6.90;65.70;;;;;;5003255;28;20054;-84
2022/03/14 08:59:03;;;;;;;15.68;8.02;;;6.90;65.80;;;;;;5032237;28;20038;-86
2022/03/14 09:01:30;;;;;;;17.65;8.98;;;7.00;65.50;;;;;;5016247;28;20054;-85
2022/03/14 09:03:55;;;;;;;14.60;8.25;;;7.10;65.40;;;;;;5019103;28;20430;-85
2022/03/14 09:06:21;;;;;;;18.70;8.68;;;7.40;64.80;;;;;;5019069;28;20053;-84
2022/03/14 09:08:47;;;;;;;20.42;8.93;;;7.70;64.20;;;;;;5014585;28;20421;-88
2022/03/14 09:11:13;;;;;;;17.52;9.02;;;8.10;63.50;;;;;;5008993;28;20414;-87
2022/03/14 09:13:41;;;;;;;19.73;8.68;;;8.60;62.70;;;;;;5008270;28;20049;-88
2022/03/14 09:16:08;;;;;;;17.17;9.10;;;9.00;61.60;;;;;;5009894;28;20030;-86
2022/03/14 09:18:35;;;;;;;17.58;9.25;;;9.30;61.00;;;;;;4997517;28;20042;-86
2022/03/14 09:21:01;;;;;;;21.02;8.95;;;9.90;60.20;;;;;;5012707;28;20015;-86
2022/03/14 09:23:27;;;;;;;16.67;8.82;;;10.70;58.70;;;;;;5010017;28;20035;-87
2022/03/14 09:25:55;;;;;;;13.82;8.52;;;11.70;57.10;;;;;;5009510;28;20111;-87
2022/03/14 09:28:23;;;;;;;14.63;8.38;;;12.30;55.60;;;;;;5008233;28;20041;-87
2022/03/14 09:30:49;;;;;;;19.50;8.27;;;12.60;55.40;;;;;;5016852;28;20098;-85
2022/03/14 09:33:15;;;;;;;18.35;8.60;;;13.40;53.70;;;;;;5009250;28;20031;-87
2022/03/14 09:35:41;;;;;;;15.45;9.18;;;13.40;53.50;;;;;;4991731;28;20538;-88
2022/03/14 09:38:07;;;;;;;14.60;8.30;;;13.70;53.20;;;;;;4989832;28;20035;-85
2022/03/14 09:40:33;;;;;;;18.50;8.95;;;14.60;52.30;;;;;;4987750;28;20007;-86
2022/03/14 09:43:00;;;;;;;14.43;8.77;;;15.60;51.20;;;;;;4994355;28;20027;-85
2022/03/14 09:45:29;;;;;;;15.32;8.20;;;15.80;49.90;;;;;;4995232;28;20051;-86
2022/03/14 09:47:59;;;;;;;16.10;8.25;;;16.40;49.70;;;;;;5002580;28;20045;-85
2022/03/14 09:50:37;;;;;;;18.80;8.10;;;16.90;49.00;;;;;;5014276;28;20034;-83
2022/03/14 09:53:05;;;;;;;17.70;8.82;;;17.80;48.20;;;;;;5016915;28;20098;-88
2022/03/14 09:55:36;;;;;;;13.68;7.55;;;17.90;47.90;;;;;;5011450;28;20085;-86
2022/03/14 09:58:02;;;;;;;18.60;7.50;;;17.70;47.50;;;;;;5013085;28;20034;-84
2022/03/14 10:00:29;;;;;;;14.30;7.95;;;18.00;47.90;;;;;;5011512;28;20022;-85
2022/03/14 10:02:54;;;;;;;14.25;8.20;;;18.80;47.00;;;;;;5012367;28;20090;-85
2022/03/14 10:05:20;;;;;;;14.50;8.32;;;18.90;46.60;;;;;;5015333;28;20035;-85
2022/03/14 10:07:46;;;;;;;14.93;7.22;;;19.60;46.00;;;;;;5013796;28;20057;-86
2022/03/14 10:10:14;;;;;;;14.13;7.85;;;20.40;45.30;;;;;;5013337;28;20018;-87
2022/03/14 10:12:42;;;;;;;13.30;8.10;;;20.30;45.30;;;;;;5009407;28;20082;-87
2022/03/14 10:15:09;;;;;;;11.95;7.97;;;20.20;45.60;;;;;;5009080;28;20057;-87
2022/03/14 10:17:35;;;;;;;14.70;7.95;;;20.30;45.00;;;;;;5010700;28;20026;-85
2022/03/14 10:20:06;;;;;;;13.57;7.45;;;21.30;44.60;;;;;;5017276;28;20026;-86
2022/03/14 10:22:35;;;;;;;12.77;7.72;;;21.20;43.80;;;;;;5016864;28;20043;-84
2022/03/14 10:25:13;;;;;;;17.60;7.35;;;22.10;44.30;;;;;;5015942;28;20058;-86
2022/03/14 10:27:45;;;;;;;12.95;7.93;;;22.10;43.10;;;;;;5011207;28;20011;-85
2022/03/14 10:30:22;;;;;;;14.48;8.10;;;21.20;44.20;;;;;;5013730;28;20094;-87
2022/03/14 10:32:48;;;;;;;15.20;7.45;;;20.70;44.50;;;;;;5006456;28;20046;-87
2022/03/14 10:35:22;;;;;;;12.48;7.45;;;21.30;44.00;;;;;;4990233;28;20006;-86
2022/03/14 10:37:59;;;;;;;13.90;7.68;;;22.00;43.70;;;;;;5010084;28;20123;-89
2022/03/14 10:40:33;;;;;;;16.42;8.13;;;22.60;42.70;;;;;;5004275;28;20034;-85
2022/03/14 10:43:00;;;;;;;12.52;7.72;;;22.40;43.20;;;;;;4985130;28;20149;-86
2022/03/14 10:45:27;;;;;;;14.75;7.75;;;22.50;44.00;;;;;;5002936;28;20026;-87
2022/03/14 10:47:57;;;;;;;16.52;8.00;;;22.70;42.80;;;;;;5002846;28;20066;-87
2022/03/14 10:50:40;;;;;;;17.17;8.07;;;23.80;42.50;;;;;;4975134;28;20023;-86
2022/03/14 10:53:19;;;;;;;10.55;7.45;;;24.60;41.80;;;;;;4996276;28;20059;-89
2022/03/14 10:55:47;;;;;;;12.30;7.25;;;23.50;42.40;;;;;;5008307;28;20050;-84
2022/03/14 10:58:18;;;;;;;11.23;7.28;;;24.20;42.20;;;;;;5000892;28;20027;-87
2022/03/14 11:00:51;;;;;;;9.80;7.15;;;25.40;41.70;;;;;;4998720;28;20026;-87
2022/03/14 11:03:27;;;;;;;11.85;7.82;;;25.70;41.20;;;;;;4996470;28;20464;-85
2022/03/14 11:06:03;;;;;;;10.88;7.65;;;25.50;41.10;;;;;;5005707;28;20037;-87
2022/03/14 11:09:00;;;;;;;15.60;7.65;;;25.40;41.00;;;;;;5004351;28;20553;-86
2022/03/14 11:11:26;;;;;;;10.93;6.93;;;24.90;41.00;;;;;;5001659;28;20038;-87
2022/03/14 11:13:57;;;;;;;19.90;8.13;;;24.80;41.40;;;;;;5013974;28;20049;-86
2022/03/14 11:16:22;;;;;;;11.70;7.93;;;25.20;41.50;;;;;;5003990;28;20030;-85
2022/03/14 11:18:50;;;;;;;13.98;8.73;;;25.60;40.90;;;;;;5014293;28;20030;-85
2022/03/14 11:21:19;;;;;;;11.65;8.45;;;25.30;41.00;;;;;;5017865;28;20030;-85
2022/03/14 11:23:48;;;;;;;10.05;8.02;;;25.50;41.10;;;;;;4985242;28;20085;-85
2022/03/14 11:26:16;;;;;;;16.75;8.88;;;25.10;41.20;;;;;;5003588;28;20486;-84
2022/03/14 11:28:45;;;;;;;12.70;8.40;;;24.80;41.20;;;;;;5004005;28;20021;-86
2022/03/14 11:31:12;;;;;;;15.73;8.93;;;25.60;41.20;;;;;;5003618;28;20041;-86
2022/03/14 11:33:38;;;;;;;14.40;8.98;;;25.70;41.20;;;;;;5012586;28;20050;-84
2022/03/14 11:36:05;;;;;;;13.80;8.18;;;25.40;40.60;;;;;;5016867;28;20151;-85
2022/03/14 11:38:33;;;;;;;11.30;8.57;;;25.60;40.90;;;;;;5029653;23;20094;-84
2022/03/14 11:41:02;;;;;;;16.67;10.20;;;25.20;40.80;;;;;;5014182;28;20133;-87
2022/03/14 11:43:29;;;;;;;12.80;8.27;;;24.80;41.40;;;;;;4996422;28;20034;-84
2022/03/14 11:45:58;;;;;;;15.60;9.32;;;25.10;41.20;;;;;;5016921;28;20034;-87
2022/03/14 11:48:32;;;;;;;15.95;9.13;;;25.80;41.30;;;;;;5016319;28;20033;-85
2022/03/14 11:51:01;;;;;;;16.23;9.57;;;26.40;40.90;;;;;;5016182;28;20042;-85
2022/03/14 11:53:32;;;;;;;20.45;10.77;;;26.50;40.60;;;;;;5018068;28;20079;-84
2022/03/14 11:56:05;;;;;;;18.02;10.60;;;25.90;40.50;;;;;;5020927;28;20049;-85
2022/03/14 11:58:39;;;;;;;15.65;9.45;;;26.30;40.70;;;;;;5021201;28;20106;-84
2022/03/14 12:01:33;;;;;;;15.40;8.95;;;26.80;40.60;;;;;;5021241;28;20054;-85
2022/03/14 12:04:10;;;;;;;14.93;9.57;;;26.30;40.00;;;;;;5017864;28;20054;-85
2022/03/14 12:06:49;;;;;;;14.48;8.88;;;26.00;40.70;;;;;;5017783;28;20053;-86
2022/03/14 12:09:24;;;;;;;14.95;8.63;;;26.70;40.70;;;;;;5014154;28;20038;-86
2022/03/14 12:11:56;;;;;;;11.48;8.73;;;28.10;40.20;;;;;;5012310;28;20211;-85
2022/03/14 12:14:42;;;;;;;16.45;8.73;;;29.60;39.70;;;;;;5018035;28;20074;-85
2022/03/14 12:17:14;;;;;;;13.25;7.65;;;30.50;39.10;;;;;;5019250;28;20053;-85
2022/03/14 12:20:03;;;;;;;13.80;9.07;;;30.30;38.70;;;;;;5013929;28;20034;-85
2022/03/14 12:22:39;;;;;;;18.02;9.07;;;29.90;38.70;;;;;;5014078;28;20109;-85
2022/03/14 12:25:08;;;;;;;16.42;8.48;;;29.40;38.90;;;;;;5014287;28;20030;-84
2022/03/14 12:27:40;;;;;;;19.67;8.20;;;29.00;39.40;;;;;;5014971;28;20041;-86
2022/03/14 12:30:07;;;;;;;14.13;7.90;;;29.10;39.00;;;;;;5015880;28;20030;-85
2022/03/14 12:32:44;;;;;;;16.65;7.70;;;29.40;39.20;;;;;;5010524;28;20038;-86
2022/03/14 12:35:17;;;;;;;20.33;9.68;;;29.70;39.10;;;;;;5016200;28;20050;-87
2022/03/14 12:37:54;;;;;;;26.95;10.10;;;29.30;38.50;;;;;;4990523;28;20478;-85
2022/03/14 12:40:19;;;;;;;11.13;7.43;;;27.80;39.20;;;;;;5010934;28;20048;-85
2022/03/14 12:42:51;;;;;;;12.07;8.90;;;27.50;39.60;;;;;;5008849;28;20054;-85
2022/03/14 12:45:24;;;;;;;13.35;8.07;;;27.60;39.60;;;;;;5008355;28;20041;-86
2022/03/14 12:47:57;;;;;;;12.80;7.55;;;28.10;39.50;;;;;;5009823;28;20048;-84